Time;durP1;ratioP1;P1;durP2;ratioP2;P2;SDS_P1;SDS_P2;PMS_P1;PMS_P2;Temp;Humidity;BMP_temperature;BMP_pressure;BME280_temperature;BME280_humidity;BME280_pressure;Samples;Min_cycle;Max_cycle;Signal;HPM_P1;HPM_P2
2023/03/29 00:01:40;;;;;;;;;;;7.00;95.50;;;;;;5089119;28;19985;-67
2023/03/29 00:04:06;;;;;;;;;;;7.00;95.70;;;;;;5088460;28;19913;-67
2023/03/29 00:06:32;;;;;;;;;;;7.00;95.60;;;;;;5089399;28;19912;-67
2023/03/29 00:08:58;;;;;;;;;;;7.00;95.60;;;;;;5096711;28;19915;-67
2023/03/29 00:11:24;;;;;;;;;;;7.00;95.70;;;;;;5108971;28;19935;-67
2023/03/29 00:13:50;;;;;;;;;;;7.00;95.70;;;;;;5109265;28;20077;-67
2023/03/29 00:16:16;;;;;;;;;;;7.00;95.70;;;;;;5109376;28;20010;-67
2023/03/29 00:18:42;;;;;;;;;;;7.00;95.80;;;;;;5109350;28;19926;-67
2023/03/29 00:21:07;;;;;;;;;;;6.90;95.60;;;;;;5108961;28;20060;-67
2023/03/29 00:23:33;;;;;;;;;;;6.90;95.80;;;;;;5109277;28;19990;-67
2023/03/29 00:25:58;;;;;;;;;;;6.90;95.60;;;;;;5109258;28;19916;-67
2023/03/29 00:28:24;;;;;;;;;;;6.90;95.70;;;;;;5108944;28;20053;-67
2023/03/29 00:30:50;;;;;;;;;;;6.90;95.80;;;;;;5108786;28;20023;-67
2023/03/29 00:33:17;;;;;;;;;;;6.90;95.80;;;;;;5108982;28;19911;-67
2023/03/29 00:35:43;;;;;;;;;;;6.90;95.80;;;;;;5109174;28;19957;-67
2023/03/29 00:38:09;;;;;;;;;;;6.90;95.80;;;;;;5109277;28;19959;-67
2023/03/29 00:40:40;;;;;;;;;;;6.90;95.80;;;;;;5108595;28;19915;-67
2023/03/29 00:43:08;;;;;;;;;;;6.90;95.80;;;;;;5108757;28;20002;-67
2023/03/29 00:45:34;;;;;;;;;;;6.90;95.90;;;;;;5108850;28;19919;-67
2023/03/29 00:48:01;;;;;;;;;;;6.90;95.90;;;;;;5107522;28;20038;-67
2023/03/29 00:50:29;;;;;;;;;;;6.90;95.90;;;;;;5108908;28;19912;-67
2023/03/29 00:53:01;;;;;;;;;;;6.90;95.90;;;;;;5108760;28;20359;-67
2023/03/29 00:55:28;;;;;;;;;;;6.80;95.80;;;;;;5108621;28;19912;-67
2023/03/29 00:57:54;;;;;;;;;;;6.90;95.90;;;;;;5108508;28;19919;-67
2023/03/29 01:00:23;;;;;;;;;;;6.90;95.90;;;;;;5108163;28;19923;-67
2023/03/29 01:02:52;;;;;;;;;;;6.90;95.90;;;;;;5108361;28;19947;-67
2023/03/29 01:05:21;;;;;;;;;;;6.80;95.90;;;;;;5108391;28;19912;-67
2023/03/29 01:07:52;;;;;;;;;;;6.80;95.90;;;;;;5107980;28;20634;-67
2023/03/29 01:10:25;;;;;;;;;;;6.80;95.90;;;;;;5106431;28;20022;-67
2023/03/29 01:12:55;;;;;;;;;;;6.80;95.90;;;;;;5107138;28;19934;-67
2023/03/29 01:15:25;;;;;;;;;;;6.80;95.90;;;;;;5097405;28;19926;-67
2023/03/29 01:17:52;;;;;;;;;;;6.80;95.90;;;;;;5106700;28;20334;-67
2023/03/29 01:20:21;;;;;;;;;;;6.80;95.90;;;;;;5108276;28;20010;-67
2023/03/29 01:23:05;;;;;;;;;;;6.80;95.90;;;;;;5108030;28;19916;-67
2023/03/29 01:25:36;;;;;;;;;;;6.80;96.00;;;;;;5108541;28;19980;-67
2023/03/29 01:28:08;;;;;;;;;;;6.80;95.90;;;;;;5107769;28;19948;-69
2023/03/29 01:30:43;;;;;;;;;;;6.80;95.80;;;;;;5107745;28;19911;-67
2023/03/29 01:33:13;;;;;;;;;;;6.80;96.00;;;;;;5102470;28;19981;-67
2023/03/29 01:35:41;;;;;;;;;;;6.80;95.90;;;;;;5087876;28;20359;-67
2023/03/29 01:38:14;;;;;;;;;;;6.80;96.00;;;;;;5087694;28;20003;-67
2023/03/29 01:40:39;;;;;;;;;;;6.80;95.90;;;;;;5097281;28;20606;-67
2023/03/29 01:43:24;;;;;;;;;;;6.80;95.90;;;;;;5108059;28;19965;-67
2023/03/29 01:45:52;;;;;;;;;;;6.80;95.90;;;;;;5107769;28;19919;-67
2023/03/29 01:48:21;;;;;;;;;;;6.80;95.90;;;;;;5107825;28;19915;-67
2023/03/29 01:50:47;;;;;;;;;;;6.70;95.90;;;;;;5107801;28;20021;-67
2023/03/29 01:53:12;;;;;;;;;;;6.70;96.10;;;;;;5108006;28;20019;-67
2023/03/29 01:55:40;;;;;;;;;;;6.80;95.90;;;;;;5107638;28;19912;-67
2023/03/29 01:58:07;;;;;;;;;;;6.80;95.80;;;;;;5107976;28;19912;-67
2023/03/29 02:00:35;;;;;;;;;;;6.70;95.80;;;;;;5107474;28;19916;-67
2023/03/29 02:03:03;;;;;;;;;;;6.80;95.90;;;;;;5107845;28;19935;-67
2023/03/29 02:05:30;;;;;;;;;;;6.70;96.00;;;;;;5107958;28;19912;-67
2023/03/29 02:07:57;;;;;;;;;;;6.70;95.90;;;;;;5103783;28;19970;-67
2023/03/29 02:10:22;;;;;;;;;;;6.70;95.80;;;;;;5106680;28;19955;-67
2023/03/29 02:12:49;;;;;;;;;;;6.70;96.00;;;;;;5107911;28;20656;-67
2023/03/29 02:15:19;;;;;;;;;;;6.70;95.80;;;;;;5108025;28;19946;-67
2023/03/29 02:17:46;;;;;;;;;;;6.70;95.90;;;;;;5108103;28;20383;-67
2023/03/29 02:20:13;;;;;;;;;;;6.70;95.90;;;;;;5107666;28;20383;-67
2023/03/29 02:23:00;;;;;;;;;;;6.70;96.00;;;;;;5107385;28;20017;-67
2023/03/29 02:25:26;;;;;;;;;;;6.70;95.90;;;;;;5107553;28;19947;-67
2023/03/29 02:27:52;;;;;;;;;;;6.70;95.90;;;;;;5109944;28;19958;-67
2023/03/29 02:30:19;;;;;;;;;;;6.70;95.90;;;;;;5109801;28;20296;-67
2023/03/29 02:32:48;;;;;;;;;;;6.70;96.00;;;;;;5111530;28;19918;-67
2023/03/29 02:35:16;;;;;;;;;;;6.70;95.80;;;;;;5111353;28;20304;-67
2023/03/29 02:37:43;;;;;;;;;;;6.70;96.00;;;;;;5111376;28;19912;-67
2023/03/29 02:40:11;;;;;;;;;;;6.70;96.00;;;;;;5110638;28;19916;-67
2023/03/29 02:42:41;;;;;;;;;;;6.70;95.90;;;;;;5110909;28;19944;-67
2023/03/29 02:45:08;;;;;;;;;;;6.70;96.00;;;;;;5111090;28;20101;-67
2023/03/29 02:47:40;;;;;;;;;;;6.70;95.90;;;;;;5111078;28;19933;-67
2023/03/29 02:50:07;;;;;;;;;;;6.70;95.90;;;;;;5111001;28;20379;-67
2023/03/29 02:52:34;;;;;;;;;;;6.70;96.00;;;;;;5110626;28;20383;-67
2023/03/29 02:55:01;;;;;;;;;;;6.70;96.00;;;;;;5110759;28;20342;-67
2023/03/29 02:57:27;;;;;;;;;;;6.70;96.00;;;;;;5110840;28;20480;-67
2023/03/29 02:59:55;;;;;;;;;;;6.70;96.00;;;;;;5110697;28;19922;-67
2023/03/29 03:02:21;;;;;;;;;;;6.70;95.90;;;;;;5110762;28;19937;-67
2023/03/29 03:04:47;;;;;;;;;;;6.70;95.90;;;;;;5111144;28;19915;-67
2023/03/29 03:07:12;;;;;;;;;;;6.70;96.00;;;;;;5110767;28;19951;-67
2023/03/29 03:09:38;;;;;;;;;;;6.70;96.00;;;;;;5109951;28;19912;-67
2023/03/29 03:12:04;;;;;;;;;;;6.70;96.00;;;;;;5110121;28;19919;-67
2023/03/29 03:14:29;;;;;;;;;;;6.70;96.10;;;;;;5110514;28;19912;-67
2023/03/29 03:16:56;;;;;;;;;;;6.70;96.00;;;;;;5110301;28;19922;-67
2023/03/29 03:19:22;;;;;;;;;;;6.70;96.00;;;;;;5110380;28;20014;-67
2023/03/29 03:21:48;;;;;;;;;;;6.70;96.10;;;;;;5110160;28;20003;-67
2023/03/29 03:24:14;;;;;;;;;;;6.70;96.10;;;;;;5108696;28;19912;-67
2023/03/29 03:26:39;;;;;;;;;;;6.70;96.00;;;;;;5110149;28;20484;-67
2023/03/29 03:29:05;;;;;;;;;;;6.70;96.00;;;;;;5110275;28;20002;-67
2023/03/29 03:31:32;;;;;;;;;;;6.70;96.00;;;;;;5110018;28;19937;-67
2023/03/29 03:33:58;;;;;;;;;;;6.70;96.00;;;;;;5109036;28;20296;-67
2023/03/29 03:36:25;;;;;;;;;;;6.70;96.00;;;;;;5110123;28;19912;-67
2023/03/29 03:38:51;;;;;;;;;;;6.70;96.10;;;;;;5108534;28;20269;-67
2023/03/29 03:41:17;;;;;;;;;;;6.70;96.00;;;;;;5109563;28;20405;-67
2023/03/29 03:43:47;;;;;;;;;;;6.70;96.10;;;;;;5109592;28;19908;-67
2023/03/29 03:46:13;;;;;;;;;;;6.70;96.10;;;;;;5109930;28;19965;-67
2023/03/29 03:48:39;;;;;;;;;;;6.70;96.10;;;;;;5109889;28;20369;-67
2023/03/29 03:51:04;;;;;;;;;;;6.70;96.00;;;;;;5107805;28;19915;-67
2023/03/29 03:53:30;;;;;;;;;;;6.70;96.00;;;;;;5109652;28;19956;-67
2023/03/29 03:55:55;;;;;;;;;;;6.70;96.00;;;;;;5109778;28;19912;-67
2023/03/29 03:58:21;;;;;;;;;;;6.70;95.90;;;;;;5109870;28;19948;-67
2023/03/29 04:00:47;;;;;;;;;;;6.70;95.90;;;;;;5109512;27;19920;-67
2023/03/29 04:03:13;;;;;;;;;;;6.70;96.00;;;;;;5109817;28;20277;-67
2023/03/29 04:05:39;;;;;;;;;;;6.70;96.00;;;;;;5109051;28;19912;-67
2023/03/29 04:08:05;;;;;;;;;;;6.70;96.00;;;;;;5104765;28;19950;-67
2023/03/29 04:10:31;;;;;;;;;;;6.70;96.00;;;;;;5108700;28;20261;-67
2023/03/29 04:12:57;;;;;;;;;;;6.70;96.00;;;;;;5109570;28;20052;-67
2023/03/29 04:15:25;;;;;;;;;;;6.70;96.00;;;;;;5107949;28;20337;-67
2023/03/29 04:17:50;;;;;;;;;;;6.70;96.00;;;;;;5109708;28;19920;-67
2023/03/29 04:20:16;;;;;;;;;;;6.70;95.90;;;;;;5107916;28;19919;-67
2023/03/29 04:22:41;;;;;;;;;;;6.70;95.90;;;;;;5108958;28;19947;-67
2023/03/29 04:25:09;;;;;;;;;;;6.70;96.00;;;;;;5108875;28;19956;-67
2023/03/29 04:27:35;;;;;;;;;;;6.70;96.10;;;;;;5109065;28;19911;-67
2023/03/29 04:30:00;;;;;;;;;;;6.70;96.10;;;;;;5108764;27;20009;-67
2023/03/29 04:32:26;;;;;;;;;;;6.70;96.10;;;;;;5108949;28;19995;-67
2023/03/29 04:34:52;;;;;;;;;;;6.70;96.10;;;;;;5108942;28;19911;-67
2023/03/29 04:37:20;;;;;;;;;;;6.70;96.40;;;;;;5109160;28;19911;-67
2023/03/29 04:39:47;;;;;;;;;;;6.70;96.10;;;;;;5107384;28;20558;-67
2023/03/29 04:42:12;;;;;;;;;;;6.70;96.10;;;;;;5108625;28;19918;-67
2023/03/29 04:44:40;;;;;;;;;;;6.70;96.10;;;;;;5108778;28;19915;-67
2023/03/29 04:47:05;;;;;;;;;;;6.70;96.10;;;;;;5107375;28;20384;-67
2023/03/29 04:49:31;;;;;;;;;;;6.70;96.10;;;;;;5108422;28;19912;-67
2023/03/29 04:51:56;;;;;;;;;;;6.70;96.20;;;;;;5108647;28;19916;-67
2023/03/29 04:54:22;;;;;;;;;;;6.70;96.10;;;;;;5108669;28;20353;-67
2023/03/29 04:56:47;;;;;;;;;;;6.70;96.20;;;;;;5107152;28;19937;-67
2023/03/29 04:59:13;;;;;;;;;;;6.70;96.20;;;;;;5108459;28;19942;-67
2023/03/29 05:01:39;;;;;;;;;;;6.70;96.20;;;;;;5108198;28;19916;-67
2023/03/29 05:04:04;;;;;;;;;;;6.70;96.10;;;;;;5108398;28;20024;-67
2023/03/29 05:06:30;;;;;;;;;;;6.70;96.20;;;;;;5108409;28;19947;-67
2023/03/29 05:08:55;;;;;;;;;;;6.70;96.20;;;;;;5107650;28;20380;-68
2023/03/29 05:11:23;;;;;;;;;;;6.70;96.20;;;;;;5107372;28;20566;-67
2023/03/29 05:13:49;;;;;;;;;;;6.70;96.20;;;;;;5106063;28;19927;-67
2023/03/29 05:16:15;;;;;;;;;;;6.70;96.20;;;;;;5107849;28;19912;-67
2023/03/29 05:18:40;;;;;;;;;;;6.70;96.20;;;;;;5107906;28;19911;-67
2023/03/29 05:21:06;;;;;;;;;;;6.70;96.50;;;;;;5107910;28;20387;-67
2023/03/29 05:23:33;;;;;;;;;;;6.70;96.20;;;;;;5107924;28;20028;-67
2023/03/29 05:25:59;;;;;;;;;;;6.70;96.20;;;;;;5108135;28;19930;-67
2023/03/29 05:28:24;;;;;;;;;;;6.70;96.20;;;;;;5108230;28;20603;-67
2023/03/29 05:31:16;;;;;;;;;;;6.70;96.30;;;;;;5107926;28;19912;-67
2023/03/29 05:33:42;;;;;;;;;;;6.70;96.30;;;;;;5105847;28;20006;-67
2023/03/29 05:36:09;;;;;;;;;;;6.70;96.30;;;;;;5108284;28;20011;-67
2023/03/29 05:38:35;;;;;;;;;;;6.70;96.30;;;;;;5108303;28;19912;-67
2023/03/29 05:41:01;;;;;;;;;;;6.70;96.30;;;;;;5106174;28;19958;-66
2023/03/29 05:43:26;;;;;;;;;;;6.70;96.30;;;;;;5108200;28;20017;-67
2023/03/29 05:45:53;;;;;;;;;;;6.70;96.30;;;;;;5107724;28;19956;-67
2023/03/29 05:48:18;;;;;;;;;;;6.70;96.40;;;;;;5108334;28;20004;-67
2023/03/29 05:50:48;;;;;;;;;;;6.70;96.60;;;;;;5107747;28;20010;-67
2023/03/29 05:53:14;;;;;;;;;;;6.80;96.40;;;;;;5107816;28;19915;-67
2023/03/29 05:55:40;;;;;;;;;;;6.70;96.50;;;;;;5108003;28;19908;-67
2023/03/29 05:58:05;;;;;;;;;;;6.80;96.40;;;;;;5108225;28;19919;-67
2023/03/29 06:00:33;;;;;;;;;;;6.70;96.50;;;;;;5107694;28;19916;-67
2023/03/29 06:02:58;;;;;;;;;;;6.80;96.50;;;;;;5110587;28;19962;-67
2023/03/29 06:05:24;;;;;;;;;;;6.70;96.50;;;;;;5110674;28;20359;-67
2023/03/29 06:07:50;;;;;;;;;;;6.80;96.50;;;;;;5108756;28;19947;-67
2023/03/29 06:10:16;;;;;;;;;;;6.80;96.60;;;;;;5109655;28;19936;-66
2023/03/29 06:12:42;;;;;;;;;;;6.80;96.50;;;;;;5111698;28;19918;-66
2023/03/29 06:15:09;;;;;;;;;;;6.80;96.50;;;;;;5111402;28;20295;-66
2023/03/29 06:17:34;;;;;;;;;;;6.80;96.50;;;;;;5111777;28;19918;-66
2023/03/29 06:20:00;;;;;;;;;;;6.80;96.50;;;;;;5111400;28;19919;-67
2023/03/29 06:22:26;;;;;;;;;;;6.80;96.60;;;;;;5111383;28;19998;-66
2023/03/29 06:24:52;;;;;;;;;;;6.80;96.50;;;;;;5111419;28;20026;-66
2023/03/29 06:27:18;;;;;;;;;;;6.80;96.50;;;;;;5111777;28;19951;-66
2023/03/29 06:29:44;;;;;;;;;;;6.80;96.50;;;;;;5111379;27;19912;-66
2023/03/29 06:32:10;;;;;;;;;;;6.90;96.50;;;;;;5111156;28;19912;-66
2023/03/29 06:34:36;;;;;;;;;;;6.90;96.50;;;;;;5111674;28;20352;-66
2023/03/29 06:37:02;;;;;;;;;;;6.90;96.60;;;;;;5111326;28;20024;-66
2023/03/29 06:39:28;;;;;;;;;;;6.90;96.50;;;;;;5110977;28;19911;-66
2023/03/29 06:41:54;;;;;;;;;;;6.90;96.60;;;;;;5110861;28;19947;-66
2023/03/29 06:44:20;;;;;;;;;;;6.90;96.50;;;;;;5110976;28;19911;-66
2023/03/29 06:46:46;;;;;;;;;;;6.90;96.60;;;;;;5110787;28;19924;-66
2023/03/29 06:49:11;;;;;;;;;;;6.90;96.50;;;;;;5110607;28;20020;-66
2023/03/29 06:51:37;;;;;;;;;;;6.90;96.60;;;;;;5110740;28;19922;-66
2023/03/29 06:54:03;;;;;;;;;;;7.00;96.60;;;;;;5110537;28;19918;-66
2023/03/29 06:56:28;;;;;;;;;;;7.00;96.50;;;;;;5110695;28;19911;-66
2023/03/29 06:58:54;;;;;;;;;;;7.00;96.50;;;;;;5110474;28;19912;-66
2023/03/29 07:01:20;;;;;;;;;;;7.00;96.60;;;;;;5110515;28;19911;-66
2023/03/29 07:03:46;;;;;;;;;;;7.00;96.50;;;;;;5110738;28;19956;-66
2023/03/29 07:06:13;;;;;;;;;;;7.00;96.50;;;;;;5110580;28;19916;-66
2023/03/29 07:08:42;;;;;;;;;;;7.00;96.50;;;;;;5105739;28;20322;-66
2023/03/29 07:11:11;;;;;;;;;;;7.00;96.50;;;;;;5109844;28;19915;-67
2023/03/29 07:13:37;;;;;;;;;;;7.00;96.50;;;;;;5108905;28;19912;-66
2023/03/29 07:16:02;;;;;;;;;;;7.10;96.50;;;;;;5094142;28;19923;-66
2023/03/29 07:18:28;;;;;;;;;;;7.10;96.50;;;;;;5108863;28;19912;-66
2023/03/29 07:20:53;;;;;;;;;;;7.10;96.50;;;;;;5109689;28;19945;-67
2023/03/29 07:23:19;;;;;;;;;;;7.10;96.50;;;;;;5110053;28;19962;-67
2023/03/29 07:25:45;;;;;;;;;;;7.10;96.50;;;;;;5110473;28;19911;-67
2023/03/29 07:28:11;;;;;;;;;;;7.10;96.50;;;;;;5109844;28;19911;-66
2023/03/29 07:30:37;;;;;;;;;;;7.20;96.50;;;;;;5109918;28;19919;-66
2023/03/29 07:33:03;;;;;;;;;;;7.20;96.50;;;;;;5110180;28;19981;-66
2023/03/29 07:35:29;;;;;;;;;;;7.20;96.60;;;;;;5109835;28;19916;-66
2023/03/29 07:37:56;;;;;;;;;;;7.20;96.50;;;;;;5109969;28;19969;-66
2023/03/29 07:40:24;;;;;;;;;;;7.20;96.50;;;;;;5107955;28;19916;-66
2023/03/29 07:42:51;;;;;;;;;;;7.30;96.60;;;;;;5109842;28;20427;-67
2023/03/29 07:45:19;;;;;;;;;;;7.30;96.60;;;;;;5109782;28;20476;-66
2023/03/29 07:47:46;;;;;;;;;;;7.30;96.60;;;;;;5110123;28;19994;-66
2023/03/29 07:50:12;;;;;;;;;;;7.30;96.60;;;;;;5109756;28;19926;-67
2023/03/29 07:52:38;;;;;;;;;;;7.30;96.50;;;;;;5109112;28;20257;-66
2023/03/29 07:55:05;;;;;;;;;;;7.40;96.50;;;;;;5109444;28;19912;-66
2023/03/29 07:57:30;;;;;;;;;;;7.40;96.50;;;;;;5109487;28;19934;-67
2023/03/29 07:59:56;;;;;;;;;;;7.40;96.40;;;;;;5109236;28;20029;-66
2023/03/29 08:02:22;;;;;;;;;;;7.40;96.40;;;;;;5107284;27;20648;-66
2023/03/29 08:04:47;;;;;;;;;;;7.40;96.40;;;;;;5109124;28;19912;-66
2023/03/29 08:07:13;;;;;;;;;;;7.50;96.30;;;;;;5106391;28;19916;-67
2023/03/29 08:09:39;;;;;;;;;;;7.50;96.40;;;;;;5108363;28;19943;-66
2023/03/29 08:12:06;;;;;;;;;;;7.50;96.40;;;;;;5108364;28;19938;-67
2023/03/29 08:14:32;;;;;;;;;;;7.60;96.40;;;;;;5108980;28;20299;-66
2023/03/29 08:16:57;;;;;;;;;;;7.60;96.30;;;;;;5109025;28;19916;-66
2023/03/29 08:19:23;;;;;;;;;;;7.70;96.20;;;;;;5108710;28;19960;-67
2023/03/29 08:21:48;;;;;;;;;;;7.70;96.20;;;;;;5108744;28;19912;-66
2023/03/29 08:24:14;;;;;;;;;;;7.70;96.10;;;;;;5108177;28;19934;-66
2023/03/29 08:26:39;;;;;;;;;;;7.80;96.10;;;;;;5108718;28;19911;-66
2023/03/29 08:29:07;;;;;;;;;;;7.80;96.10;;;;;;5106967;28;19920;-67
2023/03/29 08:31:32;;;;;;;;;;;7.80;96.00;;;;;;5107812;28;19916;-66
2023/03/29 08:33:58;;;;;;;;;;;7.90;96.00;;;;;;5108487;28;19907;-67
2023/03/29 08:36:23;;;;;;;;;;;7.90;96.00;;;;;;5108590;28;20411;-66
2023/03/29 08:38:50;;;;;;;;;;;8.00;96.00;;;;;;5108513;28;19954;-66
2023/03/29 08:41:22;;;;;;;;;;;8.00;96.00;;;;;;5108032;28;19919;-66
2023/03/29 08:43:56;;;;;;;;;;;8.10;95.90;;;;;;5108306;28;19920;-66
2023/03/29 08:46:38;;;;;;;;;;;8.10;95.90;;;;;;5108406;28;19995;-67
2023/03/29 08:49:05;;;;;;;;;;;8.10;95.80;;;;;;5108477;28;19916;-67
2023/03/29 08:51:51;;;;;;;;;;;8.10;95.90;;;;;;5108479;28;20638;-67
2023/03/29 08:54:20;;;;;;;;;;;8.20;96.00;;;;;;5108107;28;20598;-66
2023/03/29 08:56:46;;;;;;;;;;;8.20;95.90;;;;;;5108090;28;20360;-66
2023/03/29 08:59:21;;;;;;;;;;;8.20;96.00;;;;;;5107889;28;19912;-67
2023/03/29 09:01:47;;;;;;;;;;;8.20;95.90;;;;;;5107748;28;19916;-66
2023/03/29 09:04:18;;;;;;;;;;;8.20;95.90;;;;;;5108191;28;19908;-66
2023/03/29 09:06:44;;;;;;;;;;;8.30;96.00;;;;;;5107617;28;19912;-67
2023/03/29 09:09:31;;;;;;;;;;;8.30;95.90;;;;;;5102589;28;19935;-66
2023/03/29 09:11:57;;;;;;;;;;;8.40;96.20;;;;;;5106797;28;19923;-66
2023/03/29 09:14:22;;;;;;;;;;;8.40;95.80;;;;;;5107304;28;19912;-66
2023/03/29 09:16:51;;;;;;;;;;;8.50;95.70;;;;;;5107457;28;20417;-66
2023/03/29 09:19:17;;;;;;;;;;;8.50;96.10;;;;;;5107254;28;19931;-66
2023/03/29 09:22:03;;;;;;;;;;;8.60;95.70;;;;;;5107062;28;19915;-67
2023/03/29 09:24:31;;;;;;;;;;;8.60;95.70;;;;;;5086841;28;19916;-67
2023/03/29 09:27:04;;;;;;;;;;;8.70;95.70;;;;;;5087388;28;20372;-66
2023/03/29 09:29:36;;;;;;;;;;;8.70;95.70;;;;;;5087766;28;19918;-67
2023/03/29 09:32:04;;;;;;;;;;;8.80;95.70;;;;;;5087304;28;19947;-67
2023/03/29 09:34:56;;;;;;;;;;;8.80;95.60;;;;;;5090123;28;19931;-66
2023/03/29 09:37:30;;;;;;;;;;;8.90;95.60;;;;;;5089986;28;20450;-66
2023/03/29 09:39:56;;;;;;;;;;;9.00;95.50;;;;;;5095641;28;20279;-66
2023/03/29 09:42:23;;;;;;;;;;;9.00;95.50;;;;;;5111807;28;19918;-67
2023/03/29 09:45:00;;;;;;;;;;;9.10;95.40;;;;;;5112128;28;19912;-67
2023/03/29 09:47:53;;;;;;;;;;;9.10;95.50;;;;;;5111965;28;20233;-67
2023/03/29 09:50:25;;;;;;;;;;;9.20;95.30;;;;;;5109945;28;19958;-67
2023/03/29 09:52:50;;;;;;;;;;;9.20;95.40;;;;;;5111251;28;19922;-67
2023/03/29 09:55:18;;;;;;;;;;;9.30;95.40;;;;;;5097929;28;19912;-67
2023/03/29 09:57:43;;;;;;;;;;;9.40;95.40;;;;;;5090708;28;19960;-67
2023/03/29 10:00:13;;;;;;;;;;;9.40;95.40;;;;;;5100092;27;19955;-67
2023/03/29 10:02:38;;;;;;;;;;;9.50;95.20;;;;;;5131053;27;19907;-67
2023/03/29 10:05:05;;;;;;;;;;;9.60;95.20;;;;;;5131346;27;19918;-67
2023/03/29 10:07:38;;;;;;;;;;;9.60;95.20;;;;;;5131156;27;20687;-66
2023/03/29 10:10:06;;;;;;;;;;;9.60;95.20;;;;;;5110037;28;19908;-66
2023/03/29 10:12:32;;;;;;;;;;;9.70;95.60;;;;;;5110354;27;20036;-67
2023/03/29 10:14:59;;;;;;;;;;;9.70;95.30;;;;;;5109697;28;20360;-67
2023/03/29 10:17:26;;;;;;;;;;;9.70;95.50;;;;;;5109055;28;20424;-67
2023/03/29 10:19:55;;;;;;;;;;;9.80;95.30;;;;;;5110399;27;20014;-67
2023/03/29 10:22:22;;;;;;;;;;;9.80;95.30;;;;;;5110195;28;20292;-67
2023/03/29 10:24:50;;;;;;;;;;;9.90;95.20;;;;;;5110526;28;19919;-67
2023/03/29 10:27:17;;;;;;;;;;;10.00;95.10;;;;;;5110596;28;20477;-67
2023/03/29 10:29:43;;;;;;;;;;;10.10;95.00;;;;;;5110621;28;19915;-67
2023/03/29 10:32:21;;;;;;;;;;;10.20;95.20;;;;;;5110229;28;19984;-67
2023/03/29 10:34:47;;;;;;;;;;;10.20;95.10;;;;;;5110506;28;19916;-67
2023/03/29 10:37:15;;;;;;;;;;;10.30;94.80;;;;;;5123170;27;19934;-67
2023/03/29 10:39:40;;;;;;;;;;;10.30;95.10;;;;;;5128485;27;19942;-67
2023/03/29 10:42:10;;;;;;;;;;;10.40;95.00;;;;;;5109959;28;20698;-67
2023/03/29 10:44:36;;;;;;;;;;;10.50;95.00;;;;;;5110123;27;19988;-67
2023/03/29 10:47:08;;;;;;;;;;;10.50;94.70;;;;;;5110041;27;20111;-67
2023/03/29 10:49:39;;;;;;;;;;;10.60;95.00;;;;;;5109354;28;19919;-67
2023/03/29 10:52:05;;;;;;;;;;;10.70;94.70;;;;;;5110035;28;19912;-67
2023/03/29 10:54:31;;;;;;;;;;;10.80;94.90;;;;;;5109628;28;20471;-67
2023/03/29 10:56:57;;;;;;;;;;;10.80;94.90;;;;;;5109640;28;20145;-67
2023/03/29 10:59:26;;;;;;;;;;;10.90;94.50;;;;;;5109583;28;20026;-67
2023/03/29 11:01:55;;;;;;;;;;;11.00;94.60;;;;;;5108736;28;19916;-67
2023/03/29 11:04:27;;;;;;;;;;;11.00;94.80;;;;;;5108992;28;19923;-67
2023/03/29 11:06:52;;;;;;;;;;;11.10;94.40;;;;;;5102526;28;19916;-67
2023/03/29 11:09:27;;;;;;;;;;;11.10;94.50;;;;;;5108392;28;20696;-67
2023/03/29 11:11:56;;;;;;;;;;;11.10;94.40;;;;;;5109291;28;20361;-67
2023/03/29 11:14:27;;;;;;;;;;;11.20;94.50;;;;;;5109599;28;20395;-67
2023/03/29 11:17:00;;;;;;;;;;;11.20;94.70;;;;;;5109688;27;19923;-67
2023/03/29 11:19:26;;;;;;;;;;;11.30;94.50;;;;;;5109424;28;19916;-67
2023/03/29 11:21:51;;;;;;;;;;;11.40;94.50;;;;;;5109223;28;19922;-67
2023/03/29 11:24:23;;;;;;;;;;;11.40;94.30;;;;;;5109068;28;19984;-67
2023/03/29 11:27:09;;;;;;;;;;;11.50;94.40;;;;;;5109222;28;20521;-67
2023/03/29 11:29:42;;;;;;;;;;;11.60;94.70;;;;;;5108618;28;19937;-67
2023/03/29 11:32:26;;;;;;;;;;;11.70;94.20;;;;;;5109053;28;19946;-67
2023/03/29 11:35:01;;;;;;;;;;;11.70;94.20;;;;;;5109263;28;19912;-67
2023/03/29 11:37:26;;;;;;;;;;;11.80;94.10;;;;;;5107801;28;19912;-67
2023/03/29 11:40:10;;;;;;;;;;;11.90;94.10;;;;;;5107706;28;19945;-67
2023/03/29 11:42:38;;;;;;;;;;;12.00;93.90;;;;;;5108358;28;19912;-67
2023/03/29 11:45:04;;;;;;;;;;;12.00;94.00;;;;;;5109260;28;19912;-67
2023/03/29 11:47:36;;;;;;;;;;;12.20;94.30;;;;;;5103631;28;19912;-67
2023/03/29 11:50:15;;;;;;;;;;;12.20;94.10;;;;;;5113133;27;19919;-67
2023/03/29 11:52:49;;;;;;;;;;;12.30;93.80;;;;;;5101796;28;19912;-67
2023/03/29 11:55:15;;;;;;;;;;;12.40;93.70;;;;;;5087770;28;19981;-67
2023/03/29 11:57:48;;;;;;;;;;;12.50;93.80;;;;;;5088188;28;19916;-67
2023/03/29 12:00:14;;;;;;;;;;;12.50;94.10;;;;;;5086875;28;20661;-67
2023/03/29 12:02:39;;;;;;;;;;;12.50;94.10;;;;;;5088010;28;19970;-68
2023/03/29 12:05:12;;;;;;;;;;;12.50;93.90;;;;;;5087924;28;19912;-67
2023/03/29 12:07:42;;;;;;;;;;;12.60;94.40;;;;;;5105474;28;19912;-67
2023/03/29 12:10:15;;;;;;;;;;;12.60;94.10;;;;;;5108413;28;19958;-67
2023/03/29 12:12:44;;;;;;;;;;;12.60;94.00;;;;;;5108271;28;19912;-67
2023/03/29 12:15:14;;;;;;;;;;;12.70;94.10;;;;;;5108148;28;20006;-67
2023/03/29 12:17:45;;;;;;;;;;;12.80;94.10;;;;;;5108359;28;20482;-67
2023/03/29 12:20:18;;;;;;;;;;;12.80;93.90;;;;;;5108244;28;19996;-67
2023/03/29 12:22:47;;;;;;;;;;;12.80;94.10;;;;;;5106406;28;20353;-67
2023/03/29 12:25:15;;;;;;;;;;;12.90;94.00;;;;;;5108102;28;20010;-67
2023/03/29 12:27:44;;;;;;;;;;;12.90;94.00;;;;;;5107680;28;19919;-67
2023/03/29 12:30:28;;;;;;;;;;;13.00;94.00;;;;;;5107794;28;19912;-67
2023/03/29 12:33:01;;;;;;;;;;;13.00;94.10;;;;;;5107728;28;20639;-67
2023/03/29 12:35:36;;;;;;;;;;;13.00;94.00;;;;;;5107832;27;19916;-67
2023/03/29 12:38:18;;;;;;;;;;;13.10;94.10;;;;;;5107965;28;19911;-67
2023/03/29 12:40:45;;;;;;;;;;;13.10;94.10;;;;;;5107368;28;20364;-67
2023/03/29 12:43:18;;;;;;;;;;;13.00;94.10;;;;;;5107893;28;19912;-67
2023/03/29 12:45:47;;;;;;;;;;;13.10;94.30;;;;;;5108316;28;19959;-67
2023/03/29 12:48:17;;;;;;;;;;;13.10;94.00;;;;;;5108800;28;19918;-67
2023/03/29 12:50:53;;;;;;;;;;;13.10;94.10;;;;;;5108116;28;19941;-67
2023/03/29 12:53:18;;;;;;;;;;;13.10;94.20;;;;;;5107130;28;19915;-67
2023/03/29 12:55:49;;;;;;;;;;;13.10;94.20;;;;;;5106713;28;20490;-67
2023/03/29 12:58:33;;;;;;;;;;;13.20;94.20;;;;;;5107683;28;19911;-67
2023/03/29 13:01:21;;;;;;;;;;;13.20;94.30;;;;;;5107392;28;19947;-67
2023/03/29 13:03:47;;;;;;;;;;;13.20;94.40;;;;;;5106065;28;19908;-67
2023/03/29 13:06:24;;;;;;;;;;;13.20;94.40;;;;;;5102672;28;19916;-68
2023/03/29 13:08:56;;;;;;;;;;;13.10;94.60;;;;;;5106639;28;19914;-67
2023/03/29 13:11:33;;;;;;;;;;;13.10;94.70;;;;;;5104900;28;20379;-67
2023/03/29 13:14:00;;;;;;;;;;;13.10;94.70;;;;;;5106711;28;19912;-67
2023/03/29 13:16:30;;;;;;;;;;;13.10;94.80;;;;;;5106856;28;19912;-67
2023/03/29 13:19:01;;;;;;;;;;;13.10;94.90;;;;;;5105766;28;19933;-68
2023/03/29 13:21:37;;;;;;;;;;;13.20;94.80;;;;;;5106387;28;20080;-67
2023/03/29 13:24:28;;;;;;;;;;;13.20;94.70;;;;;;5114271;27;19912;-67
2023/03/29 13:27:06;;;;;;;;;;;13.30;94.50;;;;;;5113603;27;19932;-67
2023/03/29 13:29:34;;;;;;;;;;;13.40;94.60;;;;;;5105642;28;19912;-67
2023/03/29 13:32:03;;;;;;;;;;;13.40;94.40;;;;;;5106918;28;19916;-67
2023/03/29 13:34:47;;;;;;;;;;;13.50;94.40;;;;;;5105264;28;19947;-67
2023/03/29 13:37:50;;;;;;;;;;;13.50;94.40;;;;;;5107074;28;19912;-67
2023/03/29 13:40:42;;;;;;;;;;;13.50;94.40;;;;;;5061558;28;19956;-67
2023/03/29 13:43:08;;;;;;;;;;;13.60;94.20;;;;;;5086620;28;20002;-67
2023/03/29 13:45:34;;;;;;;;;;;13.60;94.30;;;;;;5107374;28;20018;-67
2023/03/29 13:48:21;;;;;;;;;;;13.60;94.40;;;;;;5107274;28;19920;-67
2023/03/29 13:50:53;;;;;;;;;;;13.60;94.70;;;;;;5105825;28;20692;-67
2023/03/29 13:53:21;;;;;;;;;;;13.50;94.60;;;;;;5093382;28;19912;-67
2023/03/29 13:55:48;;;;;;;;;;;13.50;94.70;;;;;;5087491;28;20361;-67
2023/03/29 13:58:22;;;;;;;;;;;13.50;94.60;;;;;;5087397;28;19961;-67
2023/03/29 14:01:06;;;;;;;;;;;13.50;94.80;;;;;;5086932;28;19920;-67
2023/03/29 14:03:37;;;;;;;;;;;13.40;95.00;;;;;;5087276;28;19923;-67
2023/03/29 14:06:04;;;;;;;;;;;13.40;95.10;;;;;;5087346;28;20722;-67
2023/03/29 14:08:30;;;;;;;;;;;13.40;95.00;;;;;;5107273;28;20424;-67
2023/03/29 14:10:59;;;;;;;;;;;13.40;95.20;;;;;;5107321;28;19989;-67
2023/03/29 14:13:26;;;;;;;;;;;13.50;95.00;;;;;;5105766;28;19919;-67
2023/03/29 14:16:01;;;;;;;;;;;13.50;95.00;;;;;;5107453;28;19954;-67
2023/03/29 14:18:31;;;;;;;;;;;13.60;94.70;;;;;;5107878;28;20424;-67
2023/03/29 14:20:58;;;;;;;;;;;13.70;94.60;;;;;;5107321;28;19978;-67
2023/03/29 14:23:26;;;;;;;;;;;13.70;94.60;;;;;;5108710;28;20348;-67
2023/03/29 14:25:51;;;;;;;;;;;13.70;94.60;;;;;;5110945;28;20605;-67
2023/03/29 14:28:21;;;;;;;;;;;13.80;94.50;;;;;;5111125;28;19943;-67
2023/03/29 14:30:48;;;;;;;;;;;13.80;94.40;;;;;;5108250;28;19954;-67
2023/03/29 14:33:21;;;;;;;;;;;13.80;94.50;;;;;;5109418;28;20581;-67
2023/03/29 14:35:47;;;;;;;;;;;13.90;94.40;;;;;;5110573;28;20008;-67